Time;durP1;ratioP1;P1;durP2;ratioP2;P2;SDS_P1;SDS_P2;PMS_P1;PMS_P2;Temp;Humidity;BMP_temperature;BMP_pressure;BME280_temperature;BME280_humidity;BME280_pressure;Samples;Min_cycle;Max_cycle;Signal;HPM_P1;HPM_P2
2021/04/10 00:00:20;;;;;;;8.70;7.67;;;9.70;99.90;;;;;;5052340;28;20527;-78
2021/04/10 00:02:48;;;;;;;10.00;7.73;;;9.70;99.90;;;;;;5052394;28;20539;-78
2021/04/10 00:05:14;;;;;;;12.47;7.70;;;9.70;99.90;;;;;;5052421;28;20970;-78
2021/04/10 00:07:40;;;;;;;9.83;7.13;;;9.70;99.90;;;;;;5048200;28;21173;-77
2021/04/10 00:10:08;;;;;;;9.17;8.27;;;9.70;99.90;;;;;;5038266;28;20976;-77
2021/04/10 00:12:35;;;;;;;8.70;7.50;;;9.60;99.90;;;;;;5052176;28;20475;-77
2021/04/10 00:15:02;;;;;;;11.33;8.40;;;9.60;99.90;;;;;;5052283;28;20472;-77
2021/04/10 00:17:28;;;;;;;9.43;7.57;;;9.40;99.90;;;;;;5052031;28;20471;-78
2021/04/10 00:19:54;;;;;;;9.53;7.40;;;9.30;99.90;;;;;;5055247;28;21009;-77
2021/04/10 00:22:20;;;;;;;10.20;7.50;;;9.20;99.90;;;;;;5055334;28;21279;-78
2021/04/10 00:24:46;;;;;;;11.30;7.57;;;9.10;99.90;;;;;;5055120;28;20513;-78
2021/04/10 00:27:13;;;;;;;8.27;6.43;;;9.10;99.90;;;;;;5053942;28;20476;-78
2021/04/10 00:29:40;;;;;;;7.83;7.00;;;9.00;99.90;;;;;;5053052;28;20449;-78
2021/04/10 00:32:06;;;;;;;7.80;6.80;;;8.90;99.90;;;;;;5042582;28;20539;-78
2021/04/10 00:34:33;;;;;;;8.53;6.90;;;8.90;99.90;;;;;;5055817;28;20838;-78
2021/04/10 00:36:59;;;;;;;7.83;7.13;;;8.90;99.90;;;;;;5054958;28;20444;-78
2021/04/10 00:39:25;;;;;;;9.20;7.70;;;9.00;99.90;;;;;;5038931;28;20449;-77
2021/04/10 00:41:51;;;;;;;9.43;8.43;;;9.00;99.90;;;;;;5055294;28;20532;-77
2021/04/10 00:44:17;;;;;;;9.70;7.23;;;9.00;99.90;;;;;;5055527;28;20463;-77
2021/04/10 00:46:44;;;;;;;12.13;7.90;;;9.00;99.90;;;;;;5055617;28;20808;-77
2021/04/10 00:49:10;;;;;;;8.90;7.20;;;9.00;99.90;;;;;;5055578;28;20422;-77
2021/04/10 00:51:36;;;;;;;11.20;7.37;;;9.00;99.90;;;;;;5055428;28;20487;-77
2021/04/10 00:54:03;;;;;;;8.67;7.30;;;9.10;99.90;;;;;;5054170;28;20518;-77
2021/04/10 00:56:29;;;;;;;10.03;8.13;;;9.10;99.90;;;;;;5054792;28;21066;-77
2021/04/10 00:58:55;;;;;;;11.27;7.90;;;9.10;99.90;;;;;;5055273;28;20455;-78
2021/04/10 01:01:22;;;;;;;11.20;7.10;;;9.00;99.90;;;;;;5055427;28;20458;-78
2021/04/10 01:03:49;;;;;;;8.13;6.90;;;8.90;99.90;;;;;;5055270;28;20455;-78
2021/04/10 01:06:16;;;;;;;8.00;7.20;;;8.80;99.90;;;;;;5055316;28;20448;-78
2021/04/10 01:08:42;;;;;;;11.30;7.60;;;8.80;99.90;;;;;;5055095;28;20969;-78
2021/04/10 01:11:22;;;;;;;7.53;6.77;;;8.70;99.90;;;;;;5054242;28;20452;-78
2021/04/10 01:13:57;;;;;;;9.33;7.70;;;8.60;99.90;;;;;;5038810;28;20531;-78
2021/04/10 01:16:29;;;;;;;8.97;7.30;;;8.50;99.90;;;;;;5054975;28;20479;-79
2021/04/10 01:19:04;;;;;;;10.40;7.73;;;8.50;99.90;;;;;;5054806;28;20455;-79
2021/04/10 01:21:35;;;;;;;11.13;7.67;;;8.40;99.90;;;;;;5038318;28;20477;-79
2021/04/10 01:24:27;;;;;;;11.17;7.47;;;8.40;99.90;;;;;;5054970;28;20850;-79
2021/04/10 01:27:13;;;;;;;11.80;8.33;;;8.40;99.90;;;;;;5052539;28;20483;-78
2021/04/10 01:29:44;;;;;;;8.57;6.70;;;8.40;99.90;;;;;;5054107;28;20529;-79
2021/04/10 01:32:11;;;;;;;7.97;6.83;;;8.40;99.90;;;;;;5054605;28;20535;-79
2021/04/10 01:34:42;;;;;;;9.20;8.23;;;8.40;99.90;;;;;;5054627;28;20451;-79
2021/04/10 01:37:14;;;;;;;12.47;8.40;;;8.30;99.90;;;;;;5054834;28;20555;-78
2021/04/10 01:39:41;;;;;;;10.70;9.00;;;8.30;99.90;;;;;;5054480;28;20502;-78
2021/04/10 01:42:09;;;;;;;12.18;9.75;;;8.30;99.90;;;;;;5053671;28;20484;-79
2021/04/10 01:44:36;;;;;;;10.52;9.02;;;8.30;99.90;;;;;;5052423;28;20190;-79
2021/04/10 01:47:06;;;;;;;9.40;8.40;;;8.20;99.90;;;;;;5055035;28;20201;-79
2021/04/10 01:49:33;;;;;;;10.73;8.57;;;8.20;99.90;;;;;;5053890;28;20861;-79
2021/04/10 01:52:00;;;;;;;15.13;9.70;;;8.20;99.90;;;;;;5055392;28;20943;-79
2021/04/10 01:54:27;;;;;;;10.13;8.63;;;8.10;99.90;;;;;;5054397;28;20444;-79
2021/04/10 01:56:54;;;;;;;10.10;7.83;;;8.10;99.90;;;;;;5054729;28;20444;-79
2021/04/10 01:59:22;;;;;;;10.75;8.30;;;8.10;99.90;;;;;;5054685;28;20453;-79
2021/04/10 02:01:50;;;;;;;14.13;9.37;;;8.10;99.90;;;;;;5054697;28;20537;-79
2021/04/10 02:04:18;;;;;;;12.50;10.90;;;8.00;99.90;;;;;;5054607;28;20551;-79
2021/04/10 02:06:46;;;;;;;15.00;10.37;;;7.90;99.90;;;;;;5054776;28;20448;-79
2021/04/10 02:09:14;;;;;;;11.70;9.93;;;8.00;99.90;;;;;;5054299;28;20476;-80
2021/04/10 02:11:44;;;;;;;11.33;9.70;;;8.00;99.90;;;;;;5054302;28;20792;-79
2021/04/10 02:14:11;;;;;;;13.80;10.03;;;8.00;99.90;;;;;;5054231;28;20440;-79
2021/04/10 02:16:39;;;;;;;11.60;9.40;;;8.00;99.90;;;;;;5052714;28;20567;-79
2021/04/10 02:19:05;;;;;;;14.30;10.40;;;8.00;99.90;;;;;;5053753;28;20441;-79
2021/04/10 02:21:33;;;;;;;12.20;9.52;;;8.00;99.90;;;;;;5054189;28;20449;-79
2021/04/10 02:24:00;;;;;;;14.17;11.07;;;8.00;99.90;;;;;;5054200;28;20600;-78
2021/04/10 02:26:27;;;;;;;16.00;9.70;;;8.30;99.90;;;;;;5053973;28;20436;-80
2021/04/10 02:28:56;;;;;;;13.80;9.63;;;8.10;99.90;;;;;;5053623;28;20848;-80
2021/04/10 02:31:28;;;;;;;10.47;9.37;;;8.20;99.90;;;;;;5053491;28;20742;-80
2021/04/10 02:33:58;;;;;;;9.47;8.33;;;8.20;99.90;;;;;;5053382;28;20453;-80
2021/04/10 02:36:25;;;;;;;11.53;9.20;;;8.30;99.90;;;;;;5053409;28;20816;-79
2021/04/10 02:38:54;;;;;;;10.17;8.30;;;8.30;99.90;;;;;;5053708;28;20932;-79
2021/04/10 02:41:22;;;;;;;10.33;9.20;;;8.30;99.90;;;;;;5053598;28;20455;-79
2021/04/10 02:43:53;;;;;;;11.50;10.02;;;8.30;99.90;;;;;;5053536;28;20487;-79
2021/04/10 02:46:22;;;;;;;12.05;9.35;;;8.40;99.90;;;;;;5053511;28;20182;-78
2021/04/10 02:49:01;;;;;;;10.13;9.00;;;8.30;99.90;;;;;;5053199;28;20573;-79
2021/04/10 02:51:33;;;;;;;9.33;8.20;;;8.40;99.90;;;;;;5051171;28;20470;-78
2021/04/10 02:54:02;;;;;;;14.03;9.87;;;8.50;99.90;;;;;;5053440;28;20451;-79
2021/04/10 02:56:31;;;;;;;10.97;9.70;;;8.40;99.90;;;;;;5053029;28;20484;-79
2021/04/10 02:59:00;;;;;;;12.87;8.90;;;8.40;99.90;;;;;;5053178;28;20475;-79
2021/04/10 03:01:29;;;;;;;10.50;7.70;;;8.30;99.90;;;;;;5053122;28;20440;-79
2021/04/10 03:03:55;;;;;;;9.57;8.38;;;8.30;99.90;;;;;;5053292;28;20190;-79
2021/04/10 03:06:22;;;;;;;10.70;8.75;;;8.30;99.90;;;;;;5053341;28;20198;-79
2021/04/10 03:08:49;;;;;;;8.13;7.33;;;8.30;99.90;;;;;;5053038;28;20218;-79
2021/04/10 03:11:16;;;;;;;9.20;8.27;;;8.40;99.90;;;;;;5053076;28;20484;-79
2021/04/10 03:13:44;;;;;;;11.60;9.20;;;8.40;99.90;;;;;;5052912;28;20548;-80
2021/04/10 03:16:10;;;;;;;12.13;7.33;;;8.40;99.90;;;;;;5052938;28;20476;-80
2021/04/10 03:18:37;;;;;;;7.67;6.87;;;8.40;99.90;;;;;;5053070;28;20444;-79
2021/04/10 03:21:05;;;;;;;8.20;7.43;;;8.40;99.90;;;;;;5052979;28;20463;-79
2021/04/10 03:23:31;;;;;;;11.90;7.70;;;8.40;99.90;;;;;;5052808;28;20440;-77
2021/04/10 03:25:58;;;;;;;9.40;7.83;;;8.40;99.90;;;;;;5052697;28;20969;-77
2021/04/10 03:28:28;;;;;;;9.33;7.37;;;8.40;99.90;;;;;;5052554;28;20455;-77
2021/04/10 03:30:55;;;;;;;8.37;7.43;;;8.50;99.90;;;;;;5039682;28;20457;-78
2021/04/10 03:33:21;;;;;;;7.63;6.93;;;8.50;99.90;;;;;;5049308;28;20483;-78
2021/04/10 03:35:48;;;;;;;8.40;7.60;;;8.50;99.90;;;;;;5052619;28;20847;-78
2021/04/10 03:38:15;;;;;;;7.85;7.13;;;8.50;99.90;;;;;;5052515;28;20487;-78
2021/04/10 03:40:41;;;;;;;9.07;7.03;;;8.50;99.90;;;;;;5052457;28;20190;-78
2021/04/10 03:43:07;;;;;;;12.50;8.07;;;8.60;99.90;;;;;;5050474;28;20540;-78
2021/04/10 03:45:34;;;;;;;8.40;7.68;;;8.60;99.90;;;;;;5035518;28;20796;-78
2021/04/10 03:48:00;;;;;;;8.70;7.80;;;8.50;99.90;;;;;;5052429;28;20282;-78
2021/04/10 03:50:26;;;;;;;11.00;7.27;;;8.50;99.90;;;;;;5052263;28;20959;-78
2021/04/10 03:52:52;;;;;;;7.50;6.70;;;8.50;99.90;;;;;;5052982;28;20494;-78
2021/04/10 03:55:19;;;;;;;7.43;6.73;;;8.50;99.90;;;;;;5058672;28;20479;-78
2021/04/10 03:57:45;;;;;;;10.17;6.87;;;8.50;99.90;;;;;;5042353;28;20491;-79
2021/04/10 04:00:12;;;;;;;9.33;7.90;;;8.40;99.90;;;;;;5059022;28;20444;-78
2021/04/10 04:02:40;;;;;;;8.30;7.50;;;8.40;99.90;;;;;;5059158;28;20455;-79
2021/04/10 04:05:07;;;;;;;9.87;7.23;;;8.40;99.90;;;;;;5058761;28;20447;-79
2021/04/10 04:07:33;;;;;;;7.53;6.93;;;8.50;99.90;;;;;;5058811;28;20440;-78
2021/04/10 04:10:00;;;;;;;10.40;8.77;;;8.50;99.90;;;;;;5059048;28;20464;-78
2021/04/10 04:12:26;;;;;;;8.80;7.47;;;8.50;99.90;;;;;;5058813;28;20440;-78
2021/04/10 04:14:52;;;;;;;8.07;7.27;;;8.50;99.90;;;;;;5058572;28;20965;-78
2021/04/10 04:17:18;;;;;;;9.50;6.80;;;8.50;99.90;;;;;;5059032;28;20527;-77
2021/04/10 04:19:45;;;;;;;12.63;8.80;;;8.50;99.90;;;;;;5042420;28;20484;-78
2021/04/10 04:22:12;;;;;;;10.27;8.30;;;8.50;99.90;;;;;;5058933;28;20483;-77
2021/04/10 04:24:38;;;;;;;9.70;7.83;;;8.50;99.90;;;;;;5058758;28;20444;-77
2021/04/10 04:27:04;;;;;;;9.70;7.70;;;8.50;99.90;;;;;;5058650;28;20942;-77
2021/04/10 04:29:31;;;;;;;8.93;8.03;;;8.50;99.90;;;;;;5052745;28;20460;-78
2021/04/10 04:31:57;;;;;;;8.43;7.63;;;8.50;99.90;;;;;;5051489;28;21018;-78
2021/04/10 04:34:23;;;;;;;8.90;7.23;;;8.40;99.90;;;;;;5058730;28;20441;-80
2021/04/10 04:36:50;;;;;;;10.80;8.33;;;8.40;99.90;;;;;;5058652;28;20533;-79
2021/04/10 04:39:16;;;;;;;9.23;8.17;;;8.30;99.90;;;;;;5058527;28;20497;-79
2021/04/10 04:41:44;;;;;;;10.47;8.77;;;8.30;99.90;;;;;;5058329;28;20483;-78
2021/04/10 04:44:11;;;;;;;8.70;7.80;;;8.20;99.90;;;;;;5058703;28;20452;-80
2021/04/10 04:46:37;;;;;;;9.10;8.13;;;8.20;99.90;;;;;;5058616;28;20451;-81
2021/04/10 04:49:03;;;;;;;11.40;7.63;;;8.20;99.90;;;;;;5058271;28;20478;-78
2021/04/10 04:51:29;;;;;;;9.20;8.30;;;8.20;99.90;;;;;;5058378;28;21032;-79
2021/04/10 04:53:56;;;;;;;37.97;28.07;;;8.20;99.90;;;;;;5057458;28;20487;-81
2021/04/10 04:56:22;;;;;;;15.77;12.47;;;8.20;99.90;;;;;;5048773;28;20511;-81
2021/04/10 04:58:49;;;;;;;9.03;8.20;;;8.20;99.90;;;;;;5050942;28;20519;-82
2021/04/10 05:01:15;;;;;;;9.43;8.53;;;8.20;99.90;;;;;;5055551;28;20958;-83
2021/04/10 05:03:41;;;;;;;8.80;7.90;;;8.20;99.90;;;;;;5057691;28;20482;-83
2021/04/10 05:06:07;;;;;;;10.98;8.52;;;8.20;99.90;;;;;;5051160;28;20931;-83
2021/04/10 05:08:33;;;;;;;14.68;8.50;;;8.20;99.90;;;;;;5054513;28;20222;-81
2021/04/10 05:11:00;;;;;;;9.97;8.80;;;8.20;99.90;;;;;;5053717;28;20669;-79
2021/04/10 05:13:26;;;;;;;14.40;9.53;;;8.20;99.90;;;;;;5054531;28;20427;-79
2021/04/10 05:15:55;;;;;;;10.87;9.43;;;8.20;99.90;;;;;;5054464;28;20476;-79
2021/04/10 05:18:21;;;;;;;10.57;9.30;;;8.20;99.90;;;;;;5053743;28;20451;-79
2021/04/10 05:20:47;;;;;;;9.95;8.95;;;8.20;99.90;;;;;;5054309;28;20502;-79
2021/04/10 05:23:13;;;;;;;10.77;9.70;;;8.20;99.90;;;;;;5054825;28;20534;-79
2021/04/10 05:25:39;;;;;;;16.80;11.83;;;8.20;99.90;;;;;;5054764;28;20448;-79
2021/04/10 05:28:06;;;;;;;12.10;10.80;;;8.30;99.90;;;;;;5055116;28;20452;-79
2021/04/10 05:30:32;;;;;;;11.93;10.13;;;8.20;99.90;;;;;;5054822;28;20450;-79
2021/04/10 05:32:58;;;;;;;13.03;10.60;;;8.30;99.90;;;;;;5054872;28;20444;-79
2021/04/10 05:35:24;;;;;;;13.30;10.80;;;8.30;99.90;;;;;;5054451;28;21034;-79
2021/04/10 05:37:51;;;;;;;11.15;9.93;;;8.30;99.90;;;;;;5055164;28;20453;-79
2021/04/10 05:40:17;;;;;;;12.20;10.90;;;8.30;99.90;;;;;;5054765;28;20189;-79
2021/04/10 05:42:44;;;;;;;12.40;10.37;;;8.40;99.90;;;;;;5054646;28;20460;-79
2021/04/10 05:45:12;;;;;;;11.63;10.57;;;8.30;99.90;;;;;;5054579;28;20572;-80
2021/04/10 05:47:38;;;;;;;11.13;10.03;;;8.30;99.90;;;;;;5038019;28;20863;-80
2021/04/10 05:50:06;;;;;;;14.10;9.85;;;8.30;99.90;;;;;;5054201;28;20551;-80
2021/04/10 05:52:32;;;;;;;14.07;11.00;;;8.40;99.90;;;;;;5054728;28;20187;-80
2021/04/10 05:55:01;;;;;;;11.17;9.93;;;8.40;99.90;;;;;;5053945;28;20483;-81
2021/04/10 05:57:27;;;;;;;16.40;11.40;;;8.50;99.90;;;;;;5054383;28;20502;-81
2021/04/10 05:59:53;;;;;;;12.13;9.57;;;8.50;99.90;;;;;;5054126;28;20459;-80
2021/04/10 06:02:20;;;;;;;11.33;10.00;;;8.50;99.90;;;;;;5054363;28;20444;-80
2021/04/10 06:04:46;;;;;;;11.30;10.20;;;8.60;99.90;;;;;;5053938;28;20451;-81
2021/04/10 06:07:13;;;;;;;13.17;10.47;;;8.50;99.90;;;;;;5054365;28;20456;-80
2021/04/10 06:09:39;;;;;;;12.23;10.00;;;8.50;99.90;;;;;;5053865;28;20448;-80
2021/04/10 06:12:06;;;;;;;11.70;9.97;;;8.40;99.90;;;;;;5054126;28;20448;-80
2021/04/10 06:14:32;;;;;;;12.80;11.20;;;8.40;99.90;;;;;;5054447;28;20511;-79
2021/04/10 06:16:58;;;;;;;15.10;12.03;;;8.40;99.90;;;;;;5053449;28;20571;-80
2021/04/10 06:19:47;;;;;;;13.23;11.90;;;8.40;99.90;;;;;;5053618;28;20483;-80
2021/04/10 06:22:13;;;;;;;17.23;13.68;;;8.40;99.90;;;;;;5037591;28;20440;-80
2021/04/10 06:24:39;;;;;;;16.87;12.07;;;8.40;99.90;;;;;;5053762;28;20234;-80
2021/04/10 06:27:06;;;;;;;16.33;12.93;;;8.40;99.90;;;;;;5053624;28;20539;-79
2021/04/10 06:29:32;;;;;;;14.13;12.13;;;8.40;99.90;;;;;;5053707;28;20875;-79
2021/04/10 06:31:58;;;;;;;15.45;13.35;;;8.50;99.90;;;;;;5053564;28;20522;-79
2021/04/10 06:34:24;;;;;;;15.43;13.05;;;8.50;99.90;;;;;;5053568;28;20201;-79
2021/04/10 06:36:51;;;;;;;17.80;13.40;;;8.50;99.90;;;;;;5053479;28;20320;-79
2021/04/10 06:39:17;;;;;;;16.17;11.25;;;8.40;99.90;;;;;;5053622;28;20483;-79
2021/04/10 06:41:43;;;;;;;16.10;11.50;;;8.30;99.90;;;;;;5048917;28;20190;-79
2021/04/10 06:44:09;;;;;;;12.80;11.40;;;8.30;99.90;;;;;;5039997;28;20633;-79
2021/04/10 06:46:37;;;;;;;14.10;12.25;;;8.20;99.90;;;;;;5053200;28;20427;-79
2021/04/10 06:49:06;;;;;;;15.80;12.03;;;8.20;99.90;;;;;;5053363;28;20185;-79
2021/04/10 06:51:32;;;;;;;12.68;11.35;;;8.20;99.90;;;;;;5053158;28;20448;-79
2021/04/10 06:54:03;;;;;;;14.73;11.93;;;8.20;99.90;;;;;;5053524;28;20213;-79
2021/04/10 06:56:33;;;;;;;14.63;12.27;;;8.30;99.90;;;;;;5052440;28;20496;-79
2021/04/10 06:59:06;;;;;;;15.80;12.50;;;8.30;99.90;;;;;;5038858;28;20496;-79
2021/04/10 07:01:34;;;;;;;17.60;11.60;;;8.40;99.90;;;;;;5051637;28;20808;-79
2021/04/10 07:04:00;;;;;;;16.17;12.37;;;8.40;99.90;;;;;;5053441;28;20584;-79
2021/04/10 07:06:26;;;;;;;16.60;12.40;;;8.40;99.90;;;;;;5052933;28;20959;-80
2021/04/10 07:08:54;;;;;;;14.03;12.53;;;8.40;99.90;;;;;;5052987;28;20423;-80
2021/04/10 07:11:21;;;;;;;12.83;11.53;;;8.50;99.90;;;;;;5052892;28;20958;-80
2021/04/10 07:13:47;;;;;;;17.40;11.67;;;8.60;99.90;;;;;;5052752;28;20456;-80
2021/04/10 07:16:13;;;;;;;11.45;10.35;;;8.60;99.90;;;;;;5052817;28;20575;-80
2021/04/10 07:18:39;;;;;;;14.35;11.98;;;8.70;99.90;;;;;;5052812;28;20189;-79
2021/04/10 07:21:13;;;;;;;13.48;11.73;;;8.70;99.90;;;;;;5052651;28;20641;-80
2021/04/10 07:23:48;;;;;;;14.07;11.18;;;8.80;99.90;;;;;;5048692;28;20203;-79
2021/04/10 07:26:15;;;;;;;12.80;10.57;;;8.90;99.90;;;;;;5039852;28;20185;-80
2021/04/10 07:28:42;;;;;;;12.20;11.10;;;8.90;99.90;;;;;;5050640;28;20492;-80
2021/04/10 07:31:10;;;;;;;13.70;12.30;;;8.80;99.90;;;;;;5052705;28;20456;-80
2021/04/10 07:33:38;;;;;;;12.40;11.20;;;8.90;99.90;;;;;;5052513;28;20440;-80
2021/04/10 07:36:06;;;;;;;13.63;12.00;;;8.80;99.90;;;;;;5052436;28;20472;-80
2021/04/10 07:38:34;;;;;;;12.60;11.30;;;8.80;99.90;;;;;;5052488;28;20188;-79
2021/04/10 07:41:03;;;;;;;13.80;10.10;;;8.80;99.90;;;;;;5052622;28;20477;-79
2021/04/10 07:43:31;;;;;;;10.00;9.00;;;8.80;99.90;;;;;;5052586;28;20502;-79
2021/04/10 07:46:17;;;;;;;9.43;7.60;;;8.80;99.90;;;;;;5052414;28;20969;-79
2021/04/10 07:49:04;;;;;;;8.33;6.90;;;8.90;99.90;;;;;;5052404;28;20440;-80
2021/04/10 07:51:32;;;;;;;13.98;6.72;;;8.80;99.90;;;;;;5050625;28;20501;-80
2021/04/10 07:54:00;;;;;;;6.43;5.83;;;8.90;99.90;;;;;;5051605;28;20244;-80
2021/04/10 07:56:26;;;;;;;7.03;6.43;;;8.90;99.90;;;;;;5049548;28;20484;-83
2021/04/10 07:59:02;;;;;;;6.70;6.00;;;8.90;99.90;;;;;;5052509;28;20460;-82
2021/04/10 08:01:28;;;;;;;6.50;5.90;;;9.00;99.90;;;;;;5051686;28;20602;-81
2021/04/10 08:03:57;;;;;;;8.63;6.70;;;9.00;99.90;;;;;;5051786;28;20186;-80
2021/04/10 08:06:23;;;;;;;6.90;5.33;;;8.80;99.90;;;;;;5052439;28;20448;-80
2021/04/10 08:08:54;;;;;;;5.80;5.13;;;8.70;99.90;;;;;;5052232;28;20460;-80
2021/04/10 08:11:36;;;;;;;8.83;6.77;;;8.60;99.90;;;;;;5052095;28;20932;-80
2021/04/10 08:14:06;;;;;;;6.33;5.43;;;8.50;99.90;;;;;;5052153;28;20448;-80
2021/04/10 08:16:38;;;;;;;5.37;4.80;;;8.60;99.90;;;;;;5052258;28;20526;-80
2021/04/10 08:19:04;;;;;;;6.77;5.40;;;8.60;99.90;;;;;;5052437;28;20444;-80
2021/04/10 08:21:40;;;;;;;6.43;5.78;;;8.60;99.90;;;;;;5052035;28;20771;-80
2021/04/10 08:24:45;;;;;;;7.47;6.23;;;8.60;99.90;;;;;;5052216;28;20216;-80
2021/04/10 08:27:13;;;;;;;8.87;6.10;;;8.60;99.90;;;;;;5052007;28;20444;-80
2021/04/10 08:29:40;;;;;;;7.93;6.00;;;8.40;99.90;;;;;;5052205;28;20450;-80
2021/04/10 08:32:09;;;;;;;8.57;7.50;;;8.50;99.90;;;;;;5052045;28;20498;-80
2021/04/10 08:34:35;;;;;;;10.10;7.67;;;8.60;99.90;;;;;;5052002;28;20455;-80
2021/04/10 08:37:04;;;;;;;9.03;7.60;;;8.60;99.90;;;;;;5052071;28;20835;-80
2021/04/10 08:39:34;;;;;;;9.15;7.35;;;8.70;99.90;;;;;;5052738;28;20436;-81
2021/04/10 08:42:02;;;;;;;9.57;7.10;;;8.80;99.90;;;;;;5055993;28;20264;-80
2021/04/10 08:44:30;;;;;;;11.67;7.23;;;9.00;99.90;;;;;;5055773;28;20216;-81
2021/04/10 08:46:57;;;;;;;9.27;8.13;;;9.20;99.90;;;;;;5055561;28;20459;-82
2021/04/10 08:49:26;;;;;;;11.23;6.90;;;9.20;99.90;;;;;;5055327;28;20452;-81
2021/04/10 08:51:57;;;;;;;9.83;7.40;;;9.30;99.90;;;;;;5055669;28;20460;-81
2021/04/10 08:54:25;;;;;;;8.93;7.60;;;9.30;99.90;;;;;;5055591;28;20451;-80
2021/04/10 08:56:51;;;;;;;14.40;9.07;;;9.30;99.90;;;;;;5055492;28;20480;-80
2021/04/10 08:59:19;;;;;;;10.60;8.40;;;9.50;99.90;;;;;;5055567;28;20444;-79
2021/04/10 09:02:05;;;;;;;10.70;8.20;;;9.70;99.90;;;;;;5038932;28;20452;-79
2021/04/10 09:04:56;;;;;;;9.63;8.40;;;9.70;99.90;;;;;;5055461;28;20448;-79
2021/04/10 09:08:03;;;;;;;10.17;8.60;;;9.70;99.90;;;;;;5055543;28;20808;-79
2021/04/10 09:10:52;;;;;;;9.03;8.10;;;9.80;99.90;;;;;;5055525;28;20456;-79
2021/04/10 09:13:46;;;;;;;9.70;8.70;;;10.00;99.90;;;;;;5055140;28;20979;-79
2021/04/10 09:16:34;;;;;;;12.13;9.07;;;10.20;99.90;;;;;;5042719;28;20805;-79
2021/04/10 09:19:04;;;;;;;11.93;8.40;;;10.60;99.90;;;;;;5055097;28;20506;-79
2021/04/10 09:21:43;;;;;;;9.23;8.30;;;11.00;99.90;;;;;;5055225;28;20943;-79
2021/04/10 09:24:30;;;;;;;8.33;7.30;;;11.50;99.90;;;;;;5055008;28;20453;-79
2021/04/10 09:26:59;;;;;;;6.63;6.00;;;11.80;99.90;;;;;;5054935;28;20445;-79
2021/04/10 09:29:26;;;;;;;6.97;6.33;;;12.00;99.90;;;;;;5048520;28;20451;-81
2021/04/10 09:31:58;;;;;;;6.70;5.70;;;12.20;99.90;;;;;;5054869;28;20448;-81
2021/04/10 09:34:49;;;;;;;8.07;6.57;;;12.40;99.90;;;;;;5054782;28;20441;-80
2021/04/10 09:38:01;;;;;;;5.77;5.27;;;12.50;99.90;;;;;;5054423;28;20551;-80
2021/04/10 09:40:50;;;;;;;7.77;5.87;;;12.60;99.90;;;;;;5044397;28;20476;-81
2021/04/10 09:43:21;;;;;;;6.90;5.63;;;13.00;99.90;;;;;;5054520;28;20525;-82
2021/04/10 09:45:48;;;;;;;6.50;5.03;;;13.40;99.90;;;;;;5034672;28;20947;-81
2021/04/10 09:48:18;;;;;;;5.37;4.87;;;13.70;99.90;;;;;;5041376;28;20457;-81
2021/04/10 09:50:58;;;;;;;4.70;4.20;;;13.80;99.90;;;;;;5049066;28;20971;-81
2021/04/10 09:53:26;;;;;;;8.77;4.83;;;13.90;99.90;;;;;;5054362;28;20467;-80
2021/04/10 09:56:00;;;;;;;8.40;4.43;;;13.90;99.90;;;;;;5053719;28;20492;-80
2021/04/10 09:58:33;;;;;;;5.53;4.43;;;13.80;99.90;;;;;;5054294;28;20456;-80
2021/04/10 10:01:04;;;;;;;4.70;3.60;;;13.60;99.90;;;;;;5054679;28;20490;-80
2021/04/10 10:03:31;;;;;;;5.23;3.37;;;13.60;99.90;;;;;;5053469;28;20445;-80
2021/04/10 10:05:57;;;;;;;5.27;3.40;;;13.50;99.90;;;;;;5056261;28;20517;-80
2021/04/10 10:08:27;;;;;;;4.87;3.07;;;13.50;99.90;;;;;;5053936;28;20447;-80
2021/04/10 10:10:55;;;;;;;3.80;3.30;;;13.60;99.90;;;;;;5054168;28;20506;-80
2021/04/10 10:13:25;;;;;;;5.03;3.50;;;13.70;99.90;;;;;;5054017;28;20444;-80
2021/04/10 10:15:53;;;;;;;6.67;4.27;;;13.70;99.90;;;;;;5040289;28;20483;-80
2021/04/10 10:18:22;;;;;;;6.97;3.97;;;13.90;99.90;;;;;;5048791;28;20460;-80
2021/04/10 10:20:59;;;;;;;4.70;2.70;;;14.10;99.90;;;;;;5042988;28;20460;-80
2021/04/10 10:23:30;;;;;;;3.83;3.33;;;14.10;99.90;;;;;;5042974;28;20859;-80
2021/04/10 10:26:04;;;;;;;4.53;3.50;;;14.10;99.90;;;;;;5037793;28;20472;-80
2021/04/10 10:28:32;;;;;;;5.17;3.67;;;14.00;99.90;;;;;;5043952;28;20623;-80
2021/04/10 10:31:07;;;;;;;4.83;3.97;;;14.00;99.90;;;;;;5044342;28;20484;-81
2021/04/10 10:33:34;;;;;;;3.80;3.47;;;14.10;99.90;;;;;;5049274;28;20892;-82
2021/04/10 10:36:01;;;;;;;8.50;4.10;;;14.10;99.90;;;;;;5049600;28;20508;-82
2021/04/10 10:38:31;;;;;;;6.53;3.50;;;14.20;99.90;;;;;;5046369;28;20449;-81
2021/04/10 10:40:57;;;;;;;5.33;3.90;;;14.20;99.90;;;;;;5045713;28;20464;-81
2021/04/10 10:43:25;;;;;;;4.90;4.40;;;14.20;99.90;;;;;;5050032;28;20460;-81
2021/04/10 10:45:53;;;;;;;3.97;3.67;;;14.30;99.90;;;;;;5047969;28;21026;-81
2021/04/10 10:48:26;;;;;;;7.07;3.87;;;14.40;99.90;;;;;;5050362;28;20958;-80
2021/04/10 10:50:54;;;;;;;5.30;3.90;;;14.40;99.90;;;;;;5046188;28;20504;-81
2021/04/10 10:53:22;;;;;;;4.90;4.40;;;14.50;99.90;;;;;;5052565;28;20450;-79
2021/04/10 10:56:03;;;;;;;7.10;3.90;;;14.60;99.90;;;;;;5052100;28;20480;-79
2021/04/10 10:58:40;;;;;;;4.27;3.90;;;14.80;99.90;;;;;;5049857;28;20448;-79
2021/04/10 11:01:16;;;;;;;5.80;3.93;;;14.80;99.90;;;;;;5051839;28;20491;-79
2021/04/10 11:03:59;;;;;;;6.03;3.70;;;14.60;99.90;;;;;;5051352;28;20454;-79
2021/04/10 11:06:27;;;;;;;4.60;3.70;;;14.40;99.90;;;;;;5041391;28;20549;-79
2021/04/10 11:08:54;;;;;;;5.37;3.73;;;14.40;99.90;;;;;;5052624;28;20452;-79
2021/04/10 11:11:24;;;;;;;4.83;3.63;;;14.30;99.90;;;;;;5052783;28;20903;-79
2021/04/10 11:13:51;;;;;;;6.00;4.33;;;14.30;99.90;;;;;;5052703;28;20449;-79
2021/04/10 11:16:18;;;;;;;4.47;4.07;;;14.20;99.90;;;;;;5052703;28;20504;-79
2021/04/10 11:18:45;;;;;;;8.10;4.83;;;14.10;99.90;;;;;;5052666;28;20452;-79
2021/04/10 11:21:16;;;;;;;4.90;4.40;;;14.20;99.90;;;;;;5052575;28;20449;-79
2021/04/10 11:24:11;;;;;;;7.03;4.53;;;14.10;99.90;;;;;;5052272;28;20452;-79
2021/04/10 11:26:44;;;;;;;4.90;4.50;;;14.30;99.90;;;;;;5028564;28;20499;-79
2021/04/10 11:29:26;;;;;;;5.00;4.00;;;14.40;99.90;;;;;;5052533;28;20448;-80
2021/04/10 11:32:15;;;;;;;8.00;4.17;;;14.60;99.90;;;;;;5036878;28;20456;-80
2021/04/10 11:34:43;;;;;;;4.40;4.00;;;14.70;99.90;;;;;;5052221;28;20452;-80
2021/04/10 11:37:11;;;;;;;5.67;5.13;;;15.00;99.90;;;;;;5037069;28;20484;-80
2021/04/10 11:39:55;;;;;;;7.10;4.87;;;15.00;99.90;;;;;;5051267;28;20484;-80
2021/04/10 11:42:26;;;;;;;5.37;4.60;;;15.10;99.90;;;;;;5051608;28;20480;-80
2021/04/10 11:44:53;;;;;;;7.50;4.53;;;15.10;99.90;;;;;;5052317;28;20528;-80
2021/04/10 11:47:22;;;;;;;5.87;5.03;;;15.00;99.90;;;;;;5052432;28;20456;-80
2021/04/10 11:49:49;;;;;;;4.27;3.87;;;14.80;99.90;;;;;;5051877;28;20540;-80
2021/04/10 11:52:15;;;;;;;5.07;3.90;;;14.60;99.90;;;;;;5052219;28;20441;-80
2021/04/10 11:54:42;;;;;;;5.83;4.40;;;14.50;99.90;;;;;;5051786;28;20527;-80
2021/04/10 11:57:27;;;;;;;5.00;4.50;;;14.60;99.90;;;;;;5037560;28;20508;-80
2021/04/10 12:00:05;;;;;;;8.73;4.37;;;14.70;99.90;;;;;;5036828;28;20444;-79
2021/04/10 12:02:37;;;;;;;5.23;3.27;;;14.90;99.90;;;;;;5052151;28;20451;-79
2021/04/10 12:05:23;;;;;;;5.13;3.80;;;15.10;99.90;;;;;;5052085;28;20451;-79
2021/04/10 12:08:10;;;;;;;4.33;3.93;;;15.10;99.90;;;;;;5036247;28;20502;-79
2021/04/10 12:10:38;;;;;;;4.87;4.47;;;15.20;99.90;;;;;;5052039;28;20804;-79
2021/04/10 12:13:04;;;;;;;4.40;3.67;;;15.30;99.90;;;;;;5052081;28;20448;-79
2021/04/10 12:15:31;;;;;;;5.37;3.80;;;15.30;99.90;;;;;;5054189;28;20451;-79
2021/04/10 12:17:58;;;;;;;4.40;4.07;;;15.30;99.90;;;;;;5056323;28;21057;-79
2021/04/10 12:20:25;;;;;;;4.23;3.87;;;15.10;99.90;;;;;;5055889;28;20468;-79
2021/04/10 12:22:51;;;;;;;3.87;3.47;;;14.90;99.90;;;;;;5055923;28;20947;-79
2021/04/10 12:25:19;;;;;;;6.63;4.10;;;14.70;99.90;;;;;;5055830;28;20522;-79
2021/04/10 12:27:45;;;;;;;4.60;4.20;;;14.50;99.90;;;;;;5053952;28;20455;-79
2021/04/10 12:30:12;;;;;;;4.03;3.67;;;14.30;99.90;;;;;;5055672;28;20489;-81
2021/04/10 12:32:39;;;;;;;4.63;4.23;;;14.20;99.90;;;;;;5055838;28;20935;-81
2021/04/10 12:35:07;;;;;;;4.80;4.30;;;14.00;99.90;;;;;;5055587;28;20966;-81
2021/04/10 12:37:33;;;;;;;4.60;4.20;;;13.70;99.90;;;;;;5055536;28;20534;-79
2021/04/10 12:39:59;;;;;;;3.93;3.63;;;13.50;99.90;;;;;;5055644;28;20913;-81
2021/04/10 12:42:25;;;;;;;6.90;4.50;;;13.30;99.90;;;;;;5055452;28;20455;-80
2021/04/10 12:44:51;;;;;;;6.47;3.87;;;13.00;99.90;;;;;;5041606;28;20998;-80
2021/04/10 12:47:19;;;;;;;6.37;4.00;;;12.90;99.90;;;;;;5051648;28;20448;-79
2021/04/10 12:49:45;;;;;;;3.97;3.67;;;12.80;99.90;;;;;;5042478;28;20784;-81
2021/04/10 12:52:12;;;;;;;6.57;3.87;;;12.70;99.90;;;;;;5055455;28;20448;-80
2021/04/10 12:54:42;;;;;;;5.43;4.47;;;12.70;99.90;;;;;;5055005;28;20452;-80
2021/04/10 12:57:09;;;;;;;4.50;3.50;;;12.70;99.90;;;;;;5050288;28;20496;-80
2021/04/10 12:59:35;;;;;;;7.40;4.00;;;12.70;99.90;;;;;;5051046;28;20467;-80